sensor_id;sensor_type;location;lat;lon;timestamp;P1;durP1;ratioP1;P2;durP2;ratioP2
1577;SDS011;57623;53.608;10.004;2023-06-26T00:01:27;16.03;;;14.90;;
1577;SDS011;57623;53.608;10.004;2023-06-26T00:03:57;16.60;;;15.40;;
1577;SDS011;57623;53.608;10.004;2023-06-26T00:06:26;16.13;;;14.93;;
1577;SDS011;57623;53.608;10.004;2023-06-26T00:08:55;15.40;;;14.30;;
1577;SDS011;57623;53.608;10.004;2023-06-26T00:11:25;15.80;;;14.60;;
1577;SDS011;57623;53.608;10.004;2023-06-26T00:13:53;15.33;;;14.30;;
1577;SDS011;57623;53.608;10.004;2023-06-26T00:16:21;15.70;;;14.60;;
1577;SDS011;57623;53.608;10.004;2023-06-26T00:18:49;16.00;;;14.90;;
1577;SDS011;57623;53.608;10.004;2023-06-26T00:21:17;16.67;;;15.57;;
1577;SDS011;57623;53.608;10.004;2023-06-26T00:23:46;16.47;;;15.27;;
1577;SDS011;57623;53.608;10.004;2023-06-26T00:26:15;16.10;;;14.83;;
1577;SDS011;57623;53.608;10.004;2023-06-26T00:28:43;16.33;;;15.20;;
1577;SDS011;57623;53.608;10.004;2023-06-26T00:31:11;15.90;;;14.80;;
1577;SDS011;57623;53.608;10.004;2023-06-26T00:33:39;16.33;;;15.23;;
1577;SDS011;57623;53.608;10.004;2023-06-26T00:36:07;16.10;;;15.00;;
1577;SDS011;57623;53.608;10.004;2023-06-26T00:38:35;17.07;;;15.83;;
1577;SDS011;57623;53.608;10.004;2023-06-26T00:41:03;15.57;;;14.57;;
1577;SDS011;57623;53.608;10.004;2023-06-26T00:43:32;16.13;;;15.03;;
1577;SDS011;57623;53.608;10.004;2023-06-26T00:46:00;17.37;;;16.17;;
1577;SDS011;57623;53.608;10.004;2023-06-26T00:48:28;16.50;;;15.33;;
1577;SDS011;57623;53.608;10.004;2023-06-26T00:50:57;16.90;;;15.80;;
1577;SDS011;57623;53.608;10.004;2023-06-26T00:53:25;16.47;;;15.37;;
1577;SDS011;57623;53.608;10.004;2023-06-26T00:55:53;16.87;;;15.57;;
1577;SDS011;57623;53.608;10.004;2023-06-26T00:58:21;15.70;;;14.63;;
1577;SDS011;57623;53.608;10.004;2023-06-26T01:00:53;16.40;;;15.30;;
1577;SDS011;57623;53.608;10.004;2023-06-26T01:03:22;16.37;;;15.27;;
1577;SDS011;57623;53.608;10.004;2023-06-26T01:05:51;16.10;;;15.00;;
1577;SDS011;57623;53.608;10.004;2023-06-26T01:08:20;17.03;;;15.93;;
1577;SDS011;57623;53.608;10.004;2023-06-26T01:10:48;16.43;;;15.37;;
1577;SDS011;57623;53.608;10.004;2023-06-26T01:13:17;17.70;;;16.50;;
1577;SDS011;57623;53.608;10.004;2023-06-26T01:15:45;16.77;;;15.63;;
1577;SDS011;57623;53.608;10.004;2023-06-26T01:18:15;16.20;;;15.20;;
1577;SDS011;57623;53.608;10.004;2023-06-26T01:20:43;16.37;;;15.27;;
1577;SDS011;57623;53.608;10.004;2023-06-26T01:23:12;16.73;;;15.53;;
1577;SDS011;57623;53.608;10.004;2023-06-26T01:25:50;16.83;;;15.73;;
1577;SDS011;57623;53.608;10.004;2023-06-26T01:28:29;18.43;;;17.03;;
1577;SDS011;57623;53.608;10.004;2023-06-26T01:30:59;16.47;;;15.27;;
1577;SDS011;57623;53.608;10.004;2023-06-26T01:33:27;16.90;;;15.80;;
1577;SDS011;57623;53.608;10.004;2023-06-26T01:35:55;17.47;;;16.27;;
1577;SDS011;57623;53.608;10.004;2023-06-26T01:38:24;17.30;;;16.10;;
1577;SDS011;57623;53.608;10.004;2023-06-26T01:40:52;17.00;;;15.80;;
1577;SDS011;57623;53.608;10.004;2023-06-26T01:43:23;17.80;;;16.67;;
1577;SDS011;57623;53.608;10.004;2023-06-26T01:45:58;16.93;;;15.80;;
1577;SDS011;57623;53.608;10.004;2023-06-26T01:48:31;17.20;;;16.10;;
1577;SDS011;57623;53.608;10.004;2023-06-26T01:51:02;17.00;;;15.90;;
1577;SDS011;57623;53.608;10.004;2023-06-26T01:53:32;16.40;;;15.33;;
1577;SDS011;57623;53.608;10.004;2023-06-26T01:56:06;17.83;;;16.47;;
1577;SDS011;57623;53.608;10.004;2023-06-26T01:58:36;16.03;;;15.03;;
1577;SDS011;57623;53.608;10.004;2023-06-26T02:01:08;17.13;;;15.93;;
1577;SDS011;57623;53.608;10.004;2023-06-26T02:03:36;16.43;;;15.30;;
1577;SDS011;57623;53.608;10.004;2023-06-26T02:06:05;17.20;;;16.00;;
1577;SDS011;57623;53.608;10.004;2023-06-26T02:08:33;16.90;;;15.80;;
1577;SDS011;57623;53.608;10.004;2023-06-26T02:11:01;17.20;;;15.90;;
1577;SDS011;57623;53.608;10.004;2023-06-26T02:13:29;17.67;;;16.30;;
1577;SDS011;57623;53.608;10.004;2023-06-26T02:15:56;17.80;;;16.50;;
1577;SDS011;57623;53.608;10.004;2023-06-26T02:18:26;15.97;;;14.87;;
1577;SDS011;57623;53.608;10.004;2023-06-26T02:20:54;17.50;;;16.30;;
1577;SDS011;57623;53.608;10.004;2023-06-26T02:23:22;17.10;;;15.90;;
1577;SDS011;57623;53.608;10.004;2023-06-26T02:25:50;17.53;;;16.37;;
1577;SDS011;57623;53.608;10.004;2023-06-26T02:28:17;16.43;;;15.33;;
1577;SDS011;57623;53.608;10.004;2023-06-26T02:30:45;18.13;;;16.83;;
1577;SDS011;57623;53.608;10.004;2023-06-26T02:33:13;17.73;;;16.43;;
1577;SDS011;57623;53.608;10.004;2023-06-26T02:35:43;16.50;;;15.40;;
1577;SDS011;57623;53.608;10.004;2023-06-26T02:38:11;17.37;;;16.17;;
1577;SDS011;57623;53.608;10.004;2023-06-26T02:40:39;15.93;;;14.83;;
1577;SDS011;57623;53.608;10.004;2023-06-26T02:43:07;17.63;;;16.33;;
1577;SDS011;57623;53.608;10.004;2023-06-26T02:45:35;17.67;;;16.47;;
1577;SDS011;57623;53.608;10.004;2023-06-26T02:48:03;16.60;;;15.50;;
1577;SDS011;57623;53.608;10.004;2023-06-26T02:50:32;16.73;;;15.43;;
1577;SDS011;57623;53.608;10.004;2023-06-26T02:53:01;16.43;;;15.30;;
1577;SDS011;57623;53.608;10.004;2023-06-26T02:55:29;16.63;;;15.53;;
1577;SDS011;57623;53.608;10.004;2023-06-26T02:57:57;16.27;;;15.07;;
1577;SDS011;57623;53.608;10.004;2023-06-26T03:00:25;15.93;;;14.67;;
1577;SDS011;57623;53.608;10.004;2023-06-26T03:02:55;14.90;;;13.90;;
1577;SDS011;57623;53.608;10.004;2023-06-26T03:05:23;15.20;;;14.20;;
1577;SDS011;57623;53.608;10.004;2023-06-26T03:07:52;15.80;;;14.60;;
1577;SDS011;57623;53.608;10.004;2023-06-26T03:10:21;15.27;;;14.13;;
1577;SDS011;57623;53.608;10.004;2023-06-26T03:12:49;15.70;;;14.40;;
1577;SDS011;57623;53.608;10.004;2023-06-26T03:15:17;15.00;;;14.00;;
1577;SDS011;57623;53.608;10.004;2023-06-26T03:17:45;14.10;;;13.10;;
1577;SDS011;57623;53.608;10.004;2023-06-26T03:20:13;15.07;;;14.10;;
1577;SDS011;57623;53.608;10.004;2023-06-26T03:22:41;15.30;;;14.10;;
1577;SDS011;57623;53.608;10.004;2023-06-26T03:25:09;15.20;;;14.00;;
1577;SDS011;57623;53.608;10.004;2023-06-26T03:27:39;15.03;;;13.60;;
1577;SDS011;57623;53.608;10.004;2023-06-26T03:30:07;15.80;;;14.70;;
1577;SDS011;57623;53.608;10.004;2023-06-26T03:32:36;14.73;;;13.53;;
1577;SDS011;57623;53.608;10.004;2023-06-26T03:35:04;15.50;;;14.27;;
1577;SDS011;57623;53.608;10.004;2023-06-26T03:37:32;14.53;;;13.43;;
1577;SDS011;57623;53.608;10.004;2023-06-26T03:40:00;14.90;;;13.80;;
1577;SDS011;57623;53.608;10.004;2023-06-26T03:42:30;15.57;;;14.50;;
1577;SDS011;57623;53.608;10.004;2023-06-26T03:45:00;13.80;;;12.80;;
1577;SDS011;57623;53.608;10.004;2023-06-26T03:47:28;14.53;;;13.50;;
1577;SDS011;57623;53.608;10.004;2023-06-26T03:49:56;14.43;;;13.43;;
1577;SDS011;57623;53.608;10.004;2023-06-26T03:52:24;14.00;;;13.00;;
1577;SDS011;57623;53.608;10.004;2023-06-26T03:54:52;14.93;;;13.77;;
1577;SDS011;57623;53.608;10.004;2023-06-26T03:57:19;14.37;;;13.30;;
1577;SDS011;57623;53.608;10.004;2023-06-26T03:59:47;13.60;;;12.70;;
1577;SDS011;57623;53.608;10.004;2023-06-26T04:02:17;14.53;;;13.43;;
1577;SDS011;57623;53.608;10.004;2023-06-26T04:04:45;13.90;;;12.80;;
1577;SDS011;57623;53.608;10.004;2023-06-26T04:07:13;14.17;;;13.07;;
1577;SDS011;57623;53.608;10.004;2023-06-26T04:09:42;13.93;;;12.90;;
1577;SDS011;57623;53.608;10.004;2023-06-26T04:12:09;14.83;;;13.70;;
1577;SDS011;57623;53.608;10.004;2023-06-26T04:14:38;13.20;;;12.20;;
1577;SDS011;57623;53.608;10.004;2023-06-26T04:17:06;13.90;;;12.90;;
1577;SDS011;57623;53.608;10.004;2023-06-26T04:19:35;13.63;;;12.70;;
1577;SDS011;57623;53.608;10.004;2023-06-26T04:22:03;13.00;;;12.10;;
1577;SDS011;57623;53.608;10.004;2023-06-26T04:24:31;13.70;;;12.70;;
1577;SDS011;57623;53.608;10.004;2023-06-26T04:26:59;14.10;;;13.10;;
1577;SDS011;57623;53.608;10.004;2023-06-26T04:29:27;12.50;;;11.70;;
1577;SDS011;57623;53.608;10.004;2023-06-26T04:31:55;13.80;;;12.80;;
1577;SDS011;57623;53.608;10.004;2023-06-26T04:34:24;13.53;;;12.33;;
1577;SDS011;57623;53.608;10.004;2023-06-26T04:36:54;14.77;;;13.63;;
1577;SDS011;57623;53.608;10.004;2023-06-26T04:39:22;14.07;;;13.07;;
1577;SDS011;57623;53.608;10.004;2023-06-26T04:41:50;13.63;;;12.60;;
1577;SDS011;57623;53.608;10.004;2023-06-26T04:44:19;13.77;;;12.77;;
1577;SDS011;57623;53.608;10.004;2023-06-26T04:46:47;12.97;;;12.07;;
1577;SDS011;57623;53.608;10.004;2023-06-26T04:49:18;14.37;;;13.37;;
1577;SDS011;57623;53.608;10.004;2023-06-26T04:51:46;14.40;;;13.30;;
1577;SDS011;57623;53.608;10.004;2023-06-26T04:54:16;13.27;;;12.37;;
1577;SDS011;57623;53.608;10.004;2023-06-26T04:56:44;13.53;;;12.57;;
1577;SDS011;57623;53.608;10.004;2023-06-26T04:59:13;13.97;;;12.97;;
1577;SDS011;57623;53.608;10.004;2023-06-26T05:01:41;13.03;;;12.13;;
1577;SDS011;57623;53.608;10.004;2023-06-26T05:04:14;13.50;;;12.60;;
1577;SDS011;57623;53.608;10.004;2023-06-26T05:06:42;13.30;;;12.40;;
1577;SDS011;57623;53.608;10.004;2023-06-26T05:09:10;13.57;;;12.47;;
1577;SDS011;57623;53.608;10.004;2023-06-26T05:11:39;12.67;;;11.73;;
1577;SDS011;57623;53.608;10.004;2023-06-26T05:14:07;13.40;;;12.40;;
1577;SDS011;57623;53.608;10.004;2023-06-26T05:16:35;13.43;;;12.43;;
1577;SDS011;57623;53.608;10.004;2023-06-26T05:19:03;12.73;;;11.83;;
1577;SDS011;57623;53.608;10.004;2023-06-26T05:21:31;13.03;;;12.10;;
1577;SDS011;57623;53.608;10.004;2023-06-26T05:24:01;13.03;;;12.13;;
1577;SDS011;57623;53.608;10.004;2023-06-26T05:26:31;13.27;;;12.27;;
1577;SDS011;57623;53.608;10.004;2023-06-26T05:29:01;12.63;;;11.73;;
1577;SDS011;57623;53.608;10.004;2023-06-26T05:31:30;13.03;;;11.80;;
1577;SDS011;57623;53.608;10.004;2023-06-26T05:34:00;13.23;;;12.23;;
1577;SDS011;57623;53.608;10.004;2023-06-26T05:36:30;12.77;;;11.87;;
1577;SDS011;57623;53.608;10.004;2023-06-26T05:39:01;13.17;;;12.27;;
1577;SDS011;57623;53.608;10.004;2023-06-26T05:41:29;11.93;;;11.00;;
1577;SDS011;57623;53.608;10.004;2023-06-26T05:43:58;12.97;;;11.93;;
1577;SDS011;57623;53.608;10.004;2023-06-26T05:46:27;13.57;;;12.30;;
1577;SDS011;57623;53.608;10.004;2023-06-26T05:48:55;12.80;;;11.80;;
1577;SDS011;57623;53.608;10.004;2023-06-26T05:51:23;11.97;;;11.17;;
1577;SDS011;57623;53.608;10.004;2023-06-26T05:53:51;12.37;;;11.37;;
1577;SDS011;57623;53.608;10.004;2023-06-26T05:56:20;12.37;;;11.47;;
1577;SDS011;57623;53.608;10.004;2023-06-26T05:58:49;11.90;;;11.00;;
1577;SDS011;57623;53.608;10.004;2023-06-26T06:01:18;11.67;;;10.77;;
1577;SDS011;57623;53.608;10.004;2023-06-26T06:03:47;12.13;;;11.23;;
1577;SDS011;57623;53.608;10.004;2023-06-26T06:06:16;12.53;;;11.53;;
1577;SDS011;57623;53.608;10.004;2023-06-26T06:08:44;12.70;;;11.80;;
1577;SDS011;57623;53.608;10.004;2023-06-26T06:11:14;12.30;;;11.40;;
1577;SDS011;57623;53.608;10.004;2023-06-26T06:13:42;12.00;;;11.20;;
1577;SDS011;57623;53.608;10.004;2023-06-26T06:16:10;11.00;;;10.20;;
1577;SDS011;57623;53.608;10.004;2023-06-26T06:18:38;11.73;;;10.80;;
1577;SDS011;57623;53.608;10.004;2023-06-26T06:21:08;12.20;;;11.10;;
1577;SDS011;57623;53.608;10.004;2023-06-26T06:23:36;12.10;;;11.17;;
1577;SDS011;57623;53.608;10.004;2023-06-26T06:26:04;11.13;;;10.23;;
1577;SDS011;57623;53.608;10.004;2023-06-26T06:28:32;11.40;;;10.20;;
1577;SDS011;57623;53.608;10.004;2023-06-26T06:31:00;11.57;;;10.67;;
1577;SDS011;57623;53.608;10.004;2023-06-26T06:33:29;11.67;;;10.77;;
1577;SDS011;57623;53.608;10.004;2023-06-26T06:35:57;12.40;;;11.30;;
1577;SDS011;57623;53.608;10.004;2023-06-26T06:38:26;11.50;;;10.50;;
1577;SDS011;57623;53.608;10.004;2023-06-26T06:40:54;12.10;;;11.20;;
1577;SDS011;57623;53.608;10.004;2023-06-26T06:43:22;10.77;;;10.07;;
1577;SDS011;57623;53.608;10.004;2023-06-26T06:45:50;11.90;;;10.90;;
1577;SDS011;57623;53.608;10.004;2023-06-26T06:48:18;10.83;;;10.13;;
1577;SDS011;57623;53.608;10.004;2023-06-26T06:50:46;12.70;;;11.40;;
1577;SDS011;57623;53.608;10.004;2023-06-26T06:53:14;11.07;;;10.23;;
1577;SDS011;57623;53.608;10.004;2023-06-26T06:55:43;11.13;;;10.03;;
1577;SDS011;57623;53.608;10.004;2023-06-26T06:58:12;12.70;;;11.60;;
1577;SDS011;57623;53.608;10.004;2023-06-26T07:00:40;11.10;;;10.30;;
1577;SDS011;57623;53.608;10.004;2023-06-26T07:03:08;10.63;;;9.90;;
1577;SDS011;57623;53.608;10.004;2023-06-26T07:05:36;11.50;;;10.70;;
1577;SDS011;57623;53.608;10.004;2023-06-26T07:08:04;11.23;;;10.33;;
1577;SDS011;57623;53.608;10.004;2023-06-26T07:10:32;10.80;;;10.00;;
1577;SDS011;57623;53.608;10.004;2023-06-26T07:13:02;12.20;;;10.97;;
1577;SDS011;57623;53.608;10.004;2023-06-26T07:15:30;10.27;;;9.57;;
1577;SDS011;57623;53.608;10.004;2023-06-26T07:17:58;11.47;;;10.63;;
1577;SDS011;57623;53.608;10.004;2023-06-26T07:20:27;11.13;;;10.20;;
1577;SDS011;57623;53.608;10.004;2023-06-26T07:22:55;10.70;;;9.90;;
1577;SDS011;57623;53.608;10.004;2023-06-26T07:25:22;11.33;;;10.43;;
1577;SDS011;57623;53.608;10.004;2023-06-26T07:27:50;11.23;;;10.37;;
1577;SDS011;57623;53.608;10.004;2023-06-26T07:30:20;10.90;;;10.10;;
1577;SDS011;57623;53.608;10.004;2023-06-26T07:32:48;11.07;;;10.13;;
1577;SDS011;57623;53.608;10.004;2023-06-26T07:35:16;11.03;;;10.17;;
1577;SDS011;57623;53.608;10.004;2023-06-26T07:37:44;11.00;;;10.20;;
1577;SDS011;57623;53.608;10.004;2023-06-26T07:40:12;11.77;;;10.90;;
1577;SDS011;57623;53.608;10.004;2023-06-26T07:42:40;10.80;;;10.00;;
1577;SDS011;57623;53.608;10.004;2023-06-26T07:45:08;10.87;;;10.07;;
1577;SDS011;57623;53.608;10.004;2023-06-26T07:47:39;11.10;;;10.30;;
1577;SDS011;57623;53.608;10.004;2023-06-26T07:50:08;11.50;;;10.33;;
1577;SDS011;57623;53.608;10.004;2023-06-26T07:52:36;10.27;;;9.50;;
1577;SDS011;57623;53.608;10.004;2023-06-26T07:55:05;11.80;;;10.50;;
1577;SDS011;57623;53.608;10.004;2023-06-26T07:57:33;12.30;;;11.20;;
1577;SDS011;57623;53.608;10.004;2023-06-26T08:00:01;11.53;;;10.70;;
1577;SDS011;57623;53.608;10.004;2023-06-26T08:02:30;11.10;;;10.37;;
1577;SDS011;57623;53.608;10.004;2023-06-26T08:04:59;11.37;;;10.57;;
1577;SDS011;57623;53.608;10.004;2023-06-26T08:07:27;11.20;;;10.40;;
1577;SDS011;57623;53.608;10.004;2023-06-26T08:09:55;10.70;;;10.00;;
1577;SDS011;57623;53.608;10.004;2023-06-26T08:12:23;11.57;;;10.77;;
1577;SDS011;57623;53.608;10.004;2023-06-26T08:14:51;11.50;;;10.60;;
1577;SDS011;57623;53.608;10.004;2023-06-26T08:17:19;10.77;;;9.97;;
1577;SDS011;57623;53.608;10.004;2023-06-26T08:19:47;11.23;;;10.43;;
1577;SDS011;57623;53.608;10.004;2023-06-26T08:22:17;11.30;;;10.30;;
1577;SDS011;57623;53.608;10.004;2023-06-26T08:24:45;10.60;;;9.80;;
1577;SDS011;57623;53.608;10.004;2023-06-26T08:27:13;10.47;;;9.77;;
1577;SDS011;57623;53.608;10.004;2023-06-26T08:29:41;10.30;;;9.50;;
1577;SDS011;57623;53.608;10.004;2023-06-26T08:32:09;11.20;;;10.30;;
1577;SDS011;57623;53.608;10.004;2023-06-26T08:34:37;10.67;;;9.70;;
1577;SDS011;57623;53.608;10.004;2023-06-26T08:37:05;11.07;;;10.27;;
1577;SDS011;57623;53.608;10.004;2023-06-26T08:39:36;11.43;;;10.53;;
1577;SDS011;57623;53.608;10.004;2023-06-26T08:42:04;12.27;;;11.17;;
1577;SDS011;57623;53.608;10.004;2023-06-26T08:44:33;10.83;;;10.03;;
1577;SDS011;57623;53.608;10.004;2023-06-26T08:47:06;10.37;;;9.57;;
1577;SDS011;57623;53.608;10.004;2023-06-26T08:49:35;10.73;;;9.90;;
1577;SDS011;57623;53.608;10.004;2023-06-26T08:52:10;10.77;;;9.97;;
1577;SDS011;57623;53.608;10.004;2023-06-26T08:54:46;9.77;;;9.10;;
1577;SDS011;57623;53.608;10.004;2023-06-26T08:57:19;10.13;;;9.23;;
1577;SDS011;57623;53.608;10.004;2023-06-26T08:59:49;10.07;;;9.17;;
1577;SDS011;57623;53.608;10.004;2023-06-26T09:02:19;10.00;;;9.30;;
1577;SDS011;57623;53.608;10.004;2023-06-26T09:04:47;10.63;;;9.73;;
1577;SDS011;57623;53.608;10.004;2023-06-26T09:07:16;11.00;;;9.83;;
1577;SDS011;57623;53.608;10.004;2023-06-26T09:09:48;11.30;;;10.40;;
1577;SDS011;57623;53.608;10.004;2023-06-26T09:12:16;12.63;;;11.63;;
1577;SDS011;57623;53.608;10.004;2023-06-26T09:14:44;12.93;;;11.80;;
1577;SDS011;57623;53.608;10.004;2023-06-26T09:17:12;12.50;;;11.60;;
1577;SDS011;57623;53.608;10.004;2023-06-26T09:19:40;12.37;;;11.37;;
1577;SDS011;57623;53.608;10.004;2023-06-26T09:22:13;12.77;;;11.87;;
1577;SDS011;57623;53.608;10.004;2023-06-26T09:24:42;11.50;;;10.60;;
1577;SDS011;57623;53.608;10.004;2023-06-26T09:27:12;13.70;;;12.80;;
1577;SDS011;57623;53.608;10.004;2023-06-26T09:29:40;13.47;;;12.47;;
1577;SDS011;57623;53.608;10.004;2023-06-26T09:32:09;14.13;;;12.93;;
1577;SDS011;57623;53.608;10.004;2023-06-26T09:34:37;13.23;;;12.23;;
1577;SDS011;57623;53.608;10.004;2023-06-26T09:37:11;14.57;;;13.37;;
1577;SDS011;57623;53.608;10.004;2023-06-26T09:39:39;13.43;;;12.43;;
1577;SDS011;57623;53.608;10.004;2023-06-26T09:42:07;12.87;;;11.87;;
1577;SDS011;57623;53.608;10.004;2023-06-26T09:44:37;12.43;;;11.63;;
1577;SDS011;57623;53.608;10.004;2023-06-26T09:47:12;12.40;;;11.40;;
1577;SDS011;57623;53.608;10.004;2023-06-26T09:49:43;13.40;;;11.97;;
1577;SDS011;57623;53.608;10.004;2023-06-26T09:52:13;14.27;;;13.17;;
1577;SDS011;57623;53.608;10.004;2023-06-26T09:54:43;14.30;;;13.20;;
1577;SDS011;57623;53.608;10.004;2023-06-26T09:57:12;14.53;;;13.37;;
1577;SDS011;57623;53.608;10.004;2023-06-26T09:59:44;12.90;;;12.00;;
1577;SDS011;57623;53.608;10.004;2023-06-26T10:02:12;13.33;;;12.23;;
1577;SDS011;57623;53.608;10.004;2023-06-26T10:04:41;14.00;;;12.70;;
1577;SDS011;57623;53.608;10.004;2023-06-26T10:07:11;14.40;;;13.13;;
1577;SDS011;57623;53.608;10.004;2023-06-26T10:09:40;14.90;;;13.70;;
1577;SDS011;57623;53.608;10.004;2023-06-26T10:12:11;12.90;;;11.90;;
1577;SDS011;57623;53.608;10.004;2023-06-26T10:14:44;15.03;;;13.73;;
1577;SDS011;57623;53.608;10.004;2023-06-26T10:17:15;16.10;;;14.73;;
1577;SDS011;57623;53.608;10.004;2023-06-26T10:19:46;14.70;;;13.50;;
1577;SDS011;57623;53.608;10.004;2023-06-26T10:22:17;12.93;;;11.90;;
1577;SDS011;57623;53.608;10.004;2023-06-26T10:24:47;16.03;;;14.77;;
1577;SDS011;57623;53.608;10.004;2023-06-26T10:27:17;16.30;;;15.00;;
1577;SDS011;57623;53.608;10.004;2023-06-26T10:29:49;14.07;;;12.87;;
1577;SDS011;57623;53.608;10.004;2023-06-26T10:32:20;10.47;;;9.67;;
1577;SDS011;57623;53.608;10.004;2023-06-26T10:34:48;10.50;;;9.50;;
1577;SDS011;57623;53.608;10.004;2023-06-26T10:37:17;8.50;;;7.87;;
1577;SDS011;57623;53.608;10.004;2023-06-26T10:39:46;7.90;;;7.40;;
1577;SDS011;57623;53.608;10.004;2023-06-26T10:42:17;8.93;;;8.33;;
1577;SDS011;57623;53.608;10.004;2023-06-26T10:44:47;8.33;;;7.70;;
1577;SDS011;57623;53.608;10.004;2023-06-26T10:47:28;8.93;;;8.07;;
1577;SDS011;57623;53.608;10.004;2023-06-26T10:53:09;8.33;;;7.60;;
1577;SDS011;57623;53.608;10.004;2023-06-26T10:55:43;7.50;;;6.90;;
1577;SDS011;57623;53.608;10.004;2023-06-26T10:58:29;9.30;;;8.60;;
1577;SDS011;57623;53.608;10.004;2023-06-26T11:01:15;8.37;;;7.77;;
1577;SDS011;57623;53.608;10.004;2023-06-26T11:04:00;8.50;;;7.90;;
1577;SDS011;57623;53.608;10.004;2023-06-26T11:06:32;8.77;;;8.07;;
1577;SDS011;57623;53.608;10.004;2023-06-26T11:09:06;10.70;;;9.70;;
1577;SDS011;57623;53.608;10.004;2023-06-26T11:11:55;11.10;;;10.20;;
1577;SDS011;57623;53.608;10.004;2023-06-26T11:14:28;10.23;;;9.50;;
1577;SDS011;57623;53.608;10.004;2023-06-26T11:16:58;10.90;;;10.10;;
1577;SDS011;57623;53.608;10.004;2023-06-26T11:19:29;10.77;;;9.97;;
1577;SDS011;57623;53.608;10.004;2023-06-26T11:21:58;10.90;;;9.90;;
1577;SDS011;57623;53.608;10.004;2023-06-26T11:24:27;10.30;;;9.33;;
1577;SDS011;57623;53.608;10.004;2023-06-26T11:27:01;9.00;;;8.10;;
1577;SDS011;57623;53.608;10.004;2023-06-26T11:29:31;9.40;;;8.27;;
1577;SDS011;57623;53.608;10.004;2023-06-26T11:32:02;8.27;;;7.57;;
1577;SDS011;57623;53.608;10.004;2023-06-26T11:34:33;9.93;;;8.37;;
1577;SDS011;57623;53.608;10.004;2023-06-26T11:37:01;7.73;;;7.00;;
1577;SDS011;57623;53.608;10.004;2023-06-26T11:39:30;7.40;;;6.70;;
1577;SDS011;57623;53.608;10.004;2023-06-26T11:41:59;9.63;;;7.60;;
1577;SDS011;57623;53.608;10.004;2023-06-26T11:44:31;7.53;;;6.93;;
1577;SDS011;57623;53.608;10.004;2023-06-26T11:46:59;8.87;;;7.00;;
1577;SDS011;57623;53.608;10.004;2023-06-26T11:49:29;9.63;;;6.90;;
1577;SDS011;57623;53.608;10.004;2023-06-26T11:51:57;8.70;;;6.67;;
1577;SDS011;57623;53.608;10.004;2023-06-26T11:54:26;7.87;;;5.90;;
1577;SDS011;57623;53.608;10.004;2023-06-26T11:56:55;6.13;;;5.47;;
1577;SDS011;57623;53.608;10.004;2023-06-26T11:59:24;6.00;;;4.20;;
1577;SDS011;57623;53.608;10.004;2023-06-26T12:02:00;5.67;;;4.33;;
1577;SDS011;57623;53.608;10.004;2023-06-26T12:04:34;6.63;;;3.87;;
1577;SDS011;57623;53.608;10.004;2023-06-26T12:07:05;6.17;;;4.63;;
1577;SDS011;57623;53.608;10.004;2023-06-26T12:09:37;6.70;;;3.77;;
1577;SDS011;57623;53.608;10.004;2023-06-26T12:12:07;9.00;;;3.63;;
1577;SDS011;57623;53.608;10.004;2023-06-26T12:14:36;7.30;;;3.50;;
1577;SDS011;57623;53.608;10.004;2023-06-26T12:17:08;7.87;;;3.90;;
1577;SDS011;57623;53.608;10.004;2023-06-26T12:19:38;7.10;;;3.83;;
1577;SDS011;57623;53.608;10.004;2023-06-26T12:22:07;5.60;;;3.80;;
1577;SDS011;57623;53.608;10.004;2023-06-26T12:24:36;8.70;;;3.83;;
1577;SDS011;57623;53.608;10.004;2023-06-26T12:27:07;4.30;;;3.47;;
1577;SDS011;57623;53.608;10.004;2023-06-26T12:29:36;9.00;;;4.20;;
1577;SDS011;57623;53.608;10.004;2023-06-26T12:32:08;5.10;;;3.23;;
1577;SDS011;57623;53.608;10.004;2023-06-26T12:34:38;5.47;;;3.27;;
1577;SDS011;57623;53.608;10.004;2023-06-26T12:37:07;5.27;;;3.43;;
1577;SDS011;57623;53.608;10.004;2023-06-26T12:39:46;7.43;;;4.10;;
1577;SDS011;57623;53.608;10.004;2023-06-26T12:42:16;6.07;;;3.87;;
1577;SDS011;57623;53.608;10.004;2023-06-26T12:44:45;4.63;;;3.20;;
1577;SDS011;57623;53.608;10.004;2023-06-26T12:47:14;4.17;;;3.00;;
1577;SDS011;57623;53.608;10.004;2023-06-26T12:49:45;4.77;;;3.10;;
1577;SDS011;57623;53.608;10.004;2023-06-26T12:52:18;4.80;;;2.97;;
1577;SDS011;57623;53.608;10.004;2023-06-26T12:54:47;4.83;;;3.03;;
1577;SDS011;57623;53.608;10.004;2023-06-26T12:57:20;3.83;;;2.70;;
1577;SDS011;57623;53.608;10.004;2023-06-26T12:59:48;3.43;;;3.10;;
1577;SDS011;57623;53.608;10.004;2023-06-26T13:02:16;3.33;;;3.00;;
1577;SDS011;57623;53.608;10.004;2023-06-26T13:04:45;6.03;;;3.77;;
1577;SDS011;57623;53.608;10.004;2023-06-26T13:07:14;3.00;;;2.70;;
1577;SDS011;57623;53.608;10.004;2023-06-26T13:09:42;4.40;;;3.33;;
1577;SDS011;57623;53.608;10.004;2023-06-26T13:12:11;6.17;;;3.00;;
1577;SDS011;57623;53.608;10.004;2023-06-26T13:14:40;3.47;;;2.57;;
1577;SDS011;57623;53.608;10.004;2023-06-26T13:17:07;3.30;;;2.83;;
1577;SDS011;57623;53.608;10.004;2023-06-26T13:19:36;6.17;;;2.80;;
1577;SDS011;57623;53.608;10.004;2023-06-26T13:22:05;4.20;;;3.00;;
1577;SDS011;57623;53.608;10.004;2023-06-26T13:24:33;3.17;;;2.70;;
1577;SDS011;57623;53.608;10.004;2023-06-26T13:27:01;5.07;;;2.50;;
1577;SDS011;57623;53.608;10.004;2023-06-26T13:29:29;4.10;;;2.47;;
1577;SDS011;57623;53.608;10.004;2023-06-26T13:31:58;3.23;;;2.93;;
1577;SDS011;57623;53.608;10.004;2023-06-26T13:34:27;6.50;;;3.10;;
1577;SDS011;57623;53.608;10.004;2023-06-26T13:36:55;5.60;;;2.80;;
1577;SDS011;57623;53.608;10.004;2023-06-26T13:39:27;5.53;;;2.63;;
1577;SDS011;57623;53.608;10.004;2023-06-26T13:41:55;5.00;;;2.80;;
1577;SDS011;57623;53.608;10.004;2023-06-26T13:44:23;5.70;;;2.40;;
1577;SDS011;57623;53.608;10.004;2023-06-26T13:47:06;3.80;;;2.60;;
1577;SDS011;57623;53.608;10.004;2023-06-26T13:49:35;3.20;;;2.80;;
1577;SDS011;57623;53.608;10.004;2023-06-26T13:52:04;4.93;;;2.57;;
1577;SDS011;57623;53.608;10.004;2023-06-26T13:54:35;2.63;;;2.43;;
1577;SDS011;57623;53.608;10.004;2023-06-26T13:57:05;4.37;;;2.50;;
1577;SDS011;57623;53.608;10.004;2023-06-26T13:59:36;4.23;;;2.60;;
1577;SDS011;57623;53.608;10.004;2023-06-26T14:02:05;3.23;;;2.40;;
1577;SDS011;57623;53.608;10.004;2023-06-26T14:04:34;3.30;;;2.00;;
1577;SDS011;57623;53.608;10.004;2023-06-26T14:07:03;2.53;;;2.33;;
1577;SDS011;57623;53.608;10.004;2023-06-26T14:09:32;2.47;;;2.20;;
1577;SDS011;57623;53.608;10.004;2023-06-26T14:12:02;3.50;;;1.90;;
1577;SDS011;57623;53.608;10.004;2023-06-26T14:14:30;3.47;;;2.20;;
1577;SDS011;57623;53.608;10.004;2023-06-26T14:16:58;2.40;;;2.10;;
1577;SDS011;57623;53.608;10.004;2023-06-26T14:19:26;2.70;;;2.17;;
1577;SDS011;57623;53.608;10.004;2023-06-26T14:21:54;4.77;;;2.53;;
1577;SDS011;57623;53.608;10.004;2023-06-26T14:24:22;2.97;;;2.67;;
1577;SDS011;57623;53.608;10.004;2023-06-26T14:26:50;4.33;;;2.60;;
1577;SDS011;57623;53.608;10.004;2023-06-26T14:29:19;3.20;;;2.53;;
1577;SDS011;57623;53.608;10.004;2023-06-26T14:31:48;2.43;;;2.13;;
1577;SDS011;57623;53.608;10.004;2023-06-26T14:34:17;3.20;;;2.30;;
1577;SDS011;57623;53.608;10.004;2023-06-26T14:36:46;2.20;;;2.00;;
1577;SDS011;57623;53.608;10.004;2023-06-26T14:39:14;2.87;;;2.07;;
1577;SDS011;57623;53.608;10.004;2023-06-26T14:41:42;3.40;;;2.57;;
1577;SDS011;57623;53.608;10.004;2023-06-26T14:44:10;2.87;;;2.13;;